Terminal Aerodrome Forecast
Issued by NWS Twin Cities, MN

Home | Current Version | Previous Version | Graphics & Text | Print | Product List | Glossary Off
Versions: 1 2 3 4 5 6 7 8 9 10 11 12 13 14 15 16 17 18

014
FTUS43 KMPX 240520
TAFSTC
TAF
KSTC 240520Z 2406/2506 32004KT P6SM OVC018
     FM241000 00000KT 5SM BR OVC012
     FM241200 VRB02KT 2SM BR OVC008
     FM241600 07003KT P6SM OVC015
     FM250100 05006KT 6SM BR OVC009
     FM250400 03008KT 2SM -SN BR OVC006=

USA.gov is the U.S. government's official web portal to all federal, state and local government web resources and services.